sensor_id;sensor_type;location;lat;lon;timestamp;temperature;humidity
16114;DHT22;8161;-33.910;151.156;2022-11-03T00:00:50;21.70;99.90
16114;DHT22;8161;-33.910;151.156;2022-11-03T00:03:17;22.00;99.90
16114;DHT22;8161;-33.910;151.156;2022-11-03T00:05:47;22.10;99.70
16114;DHT22;8161;-33.910;151.156;2022-11-03T00:08:28;20.90;99.40
16114;DHT22;8161;-33.910;151.156;2022-11-03T00:11:02;22.20;99.30
16114;DHT22;8161;-33.910;151.156;2022-11-03T00:13:30;22.50;99.20
16114;DHT22;8161;-33.910;151.156;2022-11-03T00:15:57;22.50;98.10
16114;DHT22;8161;-33.910;151.156;2022-11-03T00:18:25;22.50;98.00
16114;DHT22;8161;-33.910;151.156;2022-11-03T00:21:04;22.60;98.20
16114;DHT22;8161;-33.910;151.156;2022-11-03T00:23:35;22.70;97.60
16114;DHT22;8161;-33.910;151.156;2022-11-03T00:28:52;22.90;96.60
16114;DHT22;8161;-33.910;151.156;2022-11-03T00:31:22;23.00;96.70
16114;DHT22;8161;-33.910;151.156;2022-11-03T00:33:50;23.00;96.00
16114;DHT22;8161;-33.910;151.156;2022-11-03T00:36:22;22.60;95.60
16114;DHT22;8161;-33.910;151.156;2022-11-03T00:38:50;22.30;96.30
16114;DHT22;8161;-33.910;151.156;2022-11-03T00:41:19;22.10;97.30
16114;DHT22;8161;-33.910;151.156;2022-11-03T00:43:47;22.10;97.20
16114;DHT22;8161;-33.910;151.156;2022-11-03T00:46:15;22.00;96.10
16114;DHT22;8161;-33.910;151.156;2022-11-03T00:48:43;22.00;96.70
16114;DHT22;8161;-33.910;151.156;2022-11-03T00:53:48;21.90;97.40
16114;DHT22;8161;-33.910;151.156;2022-11-03T00:56:18;21.80;96.90
16114;DHT22;8161;-33.910;151.156;2022-11-03T00:58:46;21.70;97.30
16114;DHT22;8161;-33.910;151.156;2022-11-03T01:03:48;21.50;97.10
16114;DHT22;8161;-33.910;151.156;2022-11-03T01:06:34;21.50;96.70
16114;DHT22;8161;-33.910;151.156;2022-11-03T01:09:19;21.60;96.50
16114;DHT22;8161;-33.910;151.156;2022-11-03T01:12:16;21.60;96.40
16114;DHT22;8161;-33.910;151.156;2022-11-03T01:14:49;21.50;96.80
16114;DHT22;8161;-33.910;151.156;2022-11-03T01:17:18;21.70;98.40
16114;DHT22;8161;-33.910;151.156;2022-11-03T01:19:46;21.40;97.90
16114;DHT22;8161;-33.910;151.156;2022-11-03T01:22:14;21.20;97.10
16114;DHT22;8161;-33.910;151.156;2022-11-03T01:24:42;21.10;97.70
16114;DHT22;8161;-33.910;151.156;2022-11-03T01:27:15;21.10;97.40
16114;DHT22;8161;-33.910;151.156;2022-11-03T01:29:43;21.10;96.70
16114;DHT22;8161;-33.910;151.156;2022-11-03T01:32:11;21.10;96.80
16114;DHT22;8161;-33.910;151.156;2022-11-03T01:34:38;21.10;97.60
16114;DHT22;8161;-33.910;151.156;2022-11-03T01:37:06;21.10;97.80
16114;DHT22;8161;-33.910;151.156;2022-11-03T01:39:33;21.10;97.60
16114;DHT22;8161;-33.910;151.156;2022-11-03T01:42:01;21.10;97.40
16114;DHT22;8161;-33.910;151.156;2022-11-03T01:44:35;21.20;97.00
16114;DHT22;8161;-33.910;151.156;2022-11-03T01:47:17;21.50;96.70
16114;DHT22;8161;-33.910;151.156;2022-11-03T01:49:58;21.60;96.80
16114;DHT22;8161;-33.910;151.156;2022-11-03T01:52:30;21.60;96.60
16114;DHT22;8161;-33.910;151.156;2022-11-03T01:55:16;21.40;97.10
16114;DHT22;8161;-33.910;151.156;2022-11-03T01:57:58;21.20;98.00
16114;DHT22;8161;-33.910;151.156;2022-11-03T02:00:26;21.10;97.10
16114;DHT22;8161;-33.910;151.156;2022-11-03T02:02:54;21.00;97.30
16114;DHT22;8161;-33.910;151.156;2022-11-03T02:05:23;21.00;97.50
16114;DHT22;8161;-33.910;151.156;2022-11-03T02:08:10;21.00;97.60
16114;DHT22;8161;-33.910;151.156;2022-11-03T02:10:39;21.00;97.70
16114;DHT22;8161;-33.910;151.156;2022-11-03T02:13:34;21.10;97.70
16114;DHT22;8161;-33.910;151.156;2022-11-03T02:16:01;21.00;96.50
16114;DHT22;8161;-33.910;151.156;2022-11-03T02:18:31;21.00;97.10
16114;DHT22;8161;-33.910;151.156;2022-11-03T02:26:40;21.10;97.30
16114;DHT22;8161;-33.910;151.156;2022-11-03T02:29:09;21.10;97.40
16114;DHT22;8161;-33.910;151.156;2022-11-03T02:31:47;21.20;98.00
16114;DHT22;8161;-33.910;151.156;2022-11-03T02:34:30;21.40;98.70
16114;DHT22;8161;-33.910;151.156;2022-11-03T02:37:08;21.50;98.70
16114;DHT22;8161;-33.910;151.156;2022-11-03T02:39:55;21.50;97.30
16114;DHT22;8161;-33.910;151.156;2022-11-03T02:42:25;21.40;96.70
16114;DHT22;8161;-33.910;151.156;2022-11-03T02:44:56;21.40;96.40
16114;DHT22;8161;-33.910;151.156;2022-11-03T02:47:25;21.20;96.90
16114;DHT22;8161;-33.910;151.156;2022-11-03T02:49:55;21.10;98.10
16114;DHT22;8161;-33.910;151.156;2022-11-03T02:55:08;20.90;99.90
16114;DHT22;8161;-33.910;151.156;2022-11-03T02:57:42;20.90;99.90
16114;DHT22;8161;-33.910;151.156;2022-11-03T03:00:12;20.80;99.90
16114;DHT22;8161;-33.910;151.156;2022-11-03T03:02:51;21.00;99.90
16114;DHT22;8161;-33.910;151.156;2022-11-03T03:05:24;21.20;99.90
16114;DHT22;8161;-33.910;151.156;2022-11-03T03:07:58;21.30;99.90
16114;DHT22;8161;-33.910;151.156;2022-11-03T03:10:34;21.50;99.90
16114;DHT22;8161;-33.910;151.156;2022-11-03T03:13:03;21.50;99.90
16114;DHT22;8161;-33.910;151.156;2022-11-03T03:15:44;21.60;99.90
16114;DHT22;8161;-33.910;151.156;2022-11-03T03:18:19;21.70;99.90
16114;DHT22;8161;-33.910;151.156;2022-11-03T03:21:04;22.00;99.90
16114;DHT22;8161;-33.910;151.156;2022-11-03T03:23:45;22.10;99.60
16114;DHT22;8161;-33.910;151.156;2022-11-03T03:26:25;22.00;99.40
16114;DHT22;8161;-33.910;151.156;2022-11-03T03:29:01;21.90;99.00
16114;DHT22;8161;-33.910;151.156;2022-11-03T03:31:33;21.70;99.00
16114;DHT22;8161;-33.910;151.156;2022-11-03T03:34:01;21.60;99.40
16114;DHT22;8161;-33.910;151.156;2022-11-03T03:36:29;21.90;99.90
16114;DHT22;8161;-33.910;151.156;2022-11-03T03:39:01;21.60;99.90
16114;DHT22;8161;-33.910;151.156;2022-11-03T03:41:30;21.60;99.90
16114;DHT22;8161;-33.910;151.156;2022-11-03T03:44:05;21.60;99.90
16114;DHT22;8161;-33.910;151.156;2022-11-03T03:47:00;21.70;99.90
16114;DHT22;8161;-33.910;151.156;2022-11-03T03:49:29;21.70;99.90
16114;DHT22;8161;-33.910;151.156;2022-11-03T03:51:56;21.80;99.90
16114;DHT22;8161;-33.910;151.156;2022-11-03T03:54:23;22.00;99.90
16114;DHT22;8161;-33.910;151.156;2022-11-03T03:57:13;21.70;99.90
16114;DHT22;8161;-33.910;151.156;2022-11-03T03:59:44;21.70;99.90
16114;DHT22;8161;-33.910;151.156;2022-11-03T04:02:12;21.60;99.90
16114;DHT22;8161;-33.910;151.156;2022-11-03T04:04:39;21.50;99.90
16114;DHT22;8161;-33.910;151.156;2022-11-03T04:07:07;21.40;99.90
16114;DHT22;8161;-33.910;151.156;2022-11-03T04:09:48;21.50;99.90
16114;DHT22;8161;-33.910;151.156;2022-11-03T04:12:15;21.70;99.90
16114;DHT22;8161;-33.910;151.156;2022-11-03T04:14:56;22.20;99.90
16114;DHT22;8161;-33.910;151.156;2022-11-03T04:17:41;22.90;99.90
16114;DHT22;8161;-33.910;151.156;2022-11-03T04:20:23;23.30;99.90
16114;DHT22;8161;-33.910;151.156;2022-11-03T04:23:03;24.00;99.90
16114;DHT22;8161;-33.910;151.156;2022-11-03T04:25:31;24.50;99.60
16114;DHT22;8161;-33.910;151.156;2022-11-03T04:27:58;25.00;98.50
16114;DHT22;8161;-33.910;151.156;2022-11-03T04:30:25;25.20;97.30
16114;DHT22;8161;-33.910;151.156;2022-11-03T04:32:53;25.50;96.70
16114;DHT22;8161;-33.910;151.156;2022-11-03T04:35:25;25.80;96.60
16114;DHT22;8161;-33.910;151.156;2022-11-03T04:38:01;26.00;97.00
16114;DHT22;8161;-33.910;151.156;2022-11-03T04:40:29;26.10;96.50
16114;DHT22;8161;-33.910;151.156;2022-11-03T04:42:57;26.30;95.50
16114;DHT22;8161;-33.910;151.156;2022-11-03T04:45:31;26.50;95.40
16114;DHT22;8161;-33.910;151.156;2022-11-03T04:48:01;26.50;94.60
16114;DHT22;8161;-33.910;151.156;2022-11-03T04:50:32;26.50;94.50
16114;DHT22;8161;-33.910;151.156;2022-11-03T04:53:01;26.60;94.30
16114;DHT22;8161;-33.910;151.156;2022-11-03T04:55:28;26.80;93.10
16114;DHT22;8161;-33.910;151.156;2022-11-03T04:58:03;27.00;93.40
16114;DHT22;8161;-33.910;151.156;2022-11-03T05:00:30;27.10;92.60
16114;DHT22;8161;-33.910;151.156;2022-11-03T05:02:58;27.30;92.70
16114;DHT22;8161;-33.910;151.156;2022-11-03T05:05:25;27.50;92.90
16114;DHT22;8161;-33.910;151.156;2022-11-03T05:07:54;27.60;92.50
16114;DHT22;8161;-33.910;151.156;2022-11-03T05:10:25;27.70;92.40
16114;DHT22;8161;-33.910;151.156;2022-11-03T05:12:57;27.70;93.30
16114;DHT22;8161;-33.910;151.156;2022-11-03T05:15:35;27.80;94.00
16114;DHT22;8161;-33.910;151.156;2022-11-03T05:18:25;27.60;95.40
16114;DHT22;8161;-33.910;151.156;2022-11-03T05:21:22;27.20;96.90
16114;DHT22;8161;-33.910;151.156;2022-11-03T05:24:12;26.50;98.80
16114;DHT22;8161;-33.910;151.156;2022-11-03T05:26:40;25.90;99.90
16114;DHT22;8161;-33.910;151.156;2022-11-03T05:31:42;25.10;99.90
16114;DHT22;8161;-33.910;151.156;2022-11-03T05:34:30;24.70;99.90
16114;DHT22;8161;-33.910;151.156;2022-11-03T05:39:48;24.10;99.90
16114;DHT22;8161;-33.910;151.156;2022-11-03T05:44:52;23.70;99.90
16114;DHT22;8161;-33.910;151.156;2022-11-03T05:47:31;23.50;99.90
16114;DHT22;8161;-33.910;151.156;2022-11-03T05:50:12;23.40;99.90
16114;DHT22;8161;-33.910;151.156;2022-11-03T05:52:43;23.20;99.90
16114;DHT22;8161;-33.910;151.156;2022-11-03T05:55:26;23.00;99.90
16114;DHT22;8161;-33.910;151.156;2022-11-03T05:58:03;22.80;99.90
16114;DHT22;8161;-33.910;151.156;2022-11-03T06:00:33;22.60;99.90
16114;DHT22;8161;-33.910;151.156;2022-11-03T06:03:04;22.50;99.90
16114;DHT22;8161;-33.910;151.156;2022-11-03T06:05:32;22.40;99.90
16114;DHT22;8161;-33.910;151.156;2022-11-03T06:08:02;22.40;99.90
16114;DHT22;8161;-33.910;151.156;2022-11-03T06:10:35;22.30;99.90
16114;DHT22;8161;-33.910;151.156;2022-11-03T06:13:13;22.20;99.90
16114;DHT22;8161;-33.910;151.156;2022-11-03T06:15:44;22.40;99.90
16114;DHT22;8161;-33.910;151.156;2022-11-03T06:18:18;22.50;99.90
16114;DHT22;8161;-33.910;151.156;2022-11-03T06:21:32;23.00;99.90
16114;DHT22;8161;-33.910;151.156;2022-11-03T06:23:40;23.40;99.90
16114;DHT22;8161;-33.910;151.156;2022-11-03T06:26:17;24.00;99.90
16114;DHT22;8161;-33.910;151.156;2022-11-03T06:28:46;24.50;99.90
16114;DHT22;8161;-33.910;151.156;2022-11-03T06:33:47;25.00;99.90
16114;DHT22;8161;-33.910;151.156;2022-11-03T06:36:18;25.00;99.90
16114;DHT22;8161;-33.910;151.156;2022-11-03T06:39:16;24.70;99.90
16114;DHT22;8161;-33.910;151.156;2022-11-03T06:41:45;24.40;99.90
16114;DHT22;8161;-33.910;151.156;2022-11-03T06:44:23;24.00;99.90
16114;DHT22;8161;-33.910;151.156;2022-11-03T06:46:54;23.80;99.90
16114;DHT22;8161;-33.910;151.156;2022-11-03T06:49:34;24.50;99.90
16114;DHT22;8161;-33.910;151.156;2022-11-03T06:54:48;24.00;99.90
16114;DHT22;8161;-33.910;151.156;2022-11-03T06:57:18;23.90;99.90
16114;DHT22;8161;-33.910;151.156;2022-11-03T06:59:46;23.80;99.90
16114;DHT22;8161;-33.910;151.156;2022-11-03T07:05:21;23.20;99.90
16114;DHT22;8161;-33.910;151.156;2022-11-03T07:07:53;23.00;99.90
16114;DHT22;8161;-33.910;151.156;2022-11-03T07:10:24;22.70;99.90
16114;DHT22;8161;-33.910;151.156;2022-11-03T07:12:53;22.50;99.90
16114;DHT22;8161;-33.910;151.156;2022-11-03T07:15:31;22.30;99.90
16114;DHT22;8161;-33.910;151.156;2022-11-03T07:18:00;22.10;99.90
16114;DHT22;8161;-33.910;151.156;2022-11-03T07:20:28;22.00;99.90
16114;DHT22;8161;-33.910;151.156;2022-11-03T07:22:57;21.90;99.90
16114;DHT22;8161;-33.910;151.156;2022-11-03T07:25:27;21.70;99.90
16114;DHT22;8161;-33.910;151.156;2022-11-03T07:27:55;21.70;99.90
16114;DHT22;8161;-33.910;151.156;2022-11-03T07:30:30;21.90;99.90
16114;DHT22;8161;-33.910;151.156;2022-11-03T07:33:13;22.10;99.90
16114;DHT22;8161;-33.910;151.156;2022-11-03T07:35:44;22.00;99.90
16114;DHT22;8161;-33.910;151.156;2022-11-03T07:38:16;22.00;99.90
16114;DHT22;8161;-33.910;151.156;2022-11-03T07:40:45;21.90;99.90
16114;DHT22;8161;-33.910;151.156;2022-11-03T07:43:17;21.80;99.90
16114;DHT22;8161;-33.910;151.156;2022-11-03T07:45:58;21.50;99.90
16114;DHT22;8161;-33.910;151.156;2022-11-03T07:48:33;21.20;99.90
16114;DHT22;8161;-33.910;151.156;2022-11-03T07:51:48;21.10;99.90
16114;DHT22;8161;-33.910;151.156;2022-11-03T07:54:12;21.00;99.90
16114;DHT22;8161;-33.910;151.156;2022-11-03T07:56:54;20.80;99.90
16114;DHT22;8161;-33.910;151.156;2022-11-03T07:59:32;20.70;99.90
16114;DHT22;8161;-33.910;151.156;2022-11-03T08:02:05;20.60;99.90
16114;DHT22;8161;-33.910;151.156;2022-11-03T08:04:41;20.60;99.90
16114;DHT22;8161;-33.910;151.156;2022-11-03T08:07:08;20.50;99.90
16114;DHT22;8161;-33.910;151.156;2022-11-03T08:09:36;20.10;99.90
16114;DHT22;8161;-33.910;151.156;2022-11-03T08:12:03;20.40;99.90
16114;DHT22;8161;-33.910;151.156;2022-11-03T08:14:30;20.40;99.90
16114;DHT22;8161;-33.910;151.156;2022-11-03T08:16:58;20.30;99.90
16114;DHT22;8161;-33.910;151.156;2022-11-03T08:19:25;20.30;99.90
16114;DHT22;8161;-33.910;151.156;2022-11-03T08:21:52;20.20;99.90
16114;DHT22;8161;-33.910;151.156;2022-11-03T08:24:20;20.10;99.90
16114;DHT22;8161;-33.910;151.156;2022-11-03T08:26:47;20.00;99.90
16114;DHT22;8161;-33.910;151.156;2022-11-03T08:29:15;20.00;99.90
16114;DHT22;8161;-33.910;151.156;2022-11-03T08:31:45;19.90;99.90
16114;DHT22;8161;-33.910;151.156;2022-11-03T08:34:12;19.90;99.90
16114;DHT22;8161;-33.910;151.156;2022-11-03T08:36:39;19.90;99.90
16114;DHT22;8161;-33.910;151.156;2022-11-03T08:39:07;19.90;99.90
16114;DHT22;8161;-33.910;151.156;2022-11-03T08:41:34;19.90;99.90
16114;DHT22;8161;-33.910;151.156;2022-11-03T08:44:01;19.80;99.90
16114;DHT22;8161;-33.910;151.156;2022-11-03T08:46:28;19.80;99.90
16114;DHT22;8161;-33.910;151.156;2022-11-03T08:48:56;19.80;99.90
16114;DHT22;8161;-33.910;151.156;2022-11-03T08:51:23;19.80;99.90
16114;DHT22;8161;-33.910;151.156;2022-11-03T08:53:51;19.80;99.90
16114;DHT22;8161;-33.910;151.156;2022-11-03T08:56:20;19.80;99.90
16114;DHT22;8161;-33.910;151.156;2022-11-03T08:58:48;19.80;99.90
16114;DHT22;8161;-33.910;151.156;2022-11-03T09:01:18;19.80;99.90
16114;DHT22;8161;-33.910;151.156;2022-11-03T09:03:46;19.80;99.90
16114;DHT22;8161;-33.910;151.156;2022-11-03T09:06:13;19.80;99.90
16114;DHT22;8161;-33.910;151.156;2022-11-03T09:08:40;19.80;99.90
16114;DHT22;8161;-33.910;151.156;2022-11-03T09:11:08;19.70;99.90
16114;DHT22;8161;-33.910;151.156;2022-11-03T09:13:35;19.70;99.90
16114;DHT22;8161;-33.910;151.156;2022-11-03T09:16:02;19.60;99.90
16114;DHT22;8161;-33.910;151.156;2022-11-03T09:18:30;19.60;99.90
16114;DHT22;8161;-33.910;151.156;2022-11-03T09:20:59;19.60;99.90
16114;DHT22;8161;-33.910;151.156;2022-11-03T09:23:26;19.60;99.90
16114;DHT22;8161;-33.910;151.156;2022-11-03T09:25:57;19.50;99.90
16114;DHT22;8161;-33.910;151.156;2022-11-03T09:28:25;19.50;99.90
16114;DHT22;8161;-33.910;151.156;2022-11-03T09:30:52;19.50;99.90
16114;DHT22;8161;-33.910;151.156;2022-11-03T09:33:20;19.40;99.90
16114;DHT22;8161;-33.910;151.156;2022-11-03T09:35:47;19.40;99.90
16114;DHT22;8161;-33.910;151.156;2022-11-03T09:38:14;19.40;99.90
16114;DHT22;8161;-33.910;151.156;2022-11-03T09:40:42;19.30;99.90
16114;DHT22;8161;-33.910;151.156;2022-11-03T09:43:10;19.30;99.90
16114;DHT22;8161;-33.910;151.156;2022-11-03T09:45:38;19.30;99.90
16114;DHT22;8161;-33.910;151.156;2022-11-03T09:48:09;19.20;99.90
16114;DHT22;8161;-33.910;151.156;2022-11-03T09:50:38;19.20;99.90
16114;DHT22;8161;-33.910;151.156;2022-11-03T09:53:05;19.20;99.90
16114;DHT22;8161;-33.910;151.156;2022-11-03T09:55:33;19.20;99.90
16114;DHT22;8161;-33.910;151.156;2022-11-03T09:58:07;19.20;99.90
16114;DHT22;8161;-33.910;151.156;2022-11-03T10:00:35;19.20;99.90
16114;DHT22;8161;-33.910;151.156;2022-11-03T10:03:03;19.20;99.90
16114;DHT22;8161;-33.910;151.156;2022-11-03T10:05:31;19.20;99.90
16114;DHT22;8161;-33.910;151.156;2022-11-03T10:08:02;19.20;99.90
16114;DHT22;8161;-33.910;151.156;2022-11-03T10:10:32;19.10;99.90
16114;DHT22;8161;-33.910;151.156;2022-11-03T10:13:00;19.10;99.90
16114;DHT22;8161;-33.910;151.156;2022-11-03T10:15:28;19.10;99.90
16114;DHT22;8161;-33.910;151.156;2022-11-03T10:17:56;18.80;99.90
16114;DHT22;8161;-33.910;151.156;2022-11-03T10:20:23;19.00;99.90
16114;DHT22;8161;-33.910;151.156;2022-11-03T10:22:52;18.90;99.90
16114;DHT22;8161;-33.910;151.156;2022-11-03T10:25:38;18.90;99.90
16114;DHT22;8161;-33.910;151.156;2022-11-03T10:30:57;18.80;99.90
16114;DHT22;8161;-33.910;151.156;2022-11-03T10:38:43;18.80;99.90
16114;DHT22;8161;-33.910;151.156;2022-11-03T10:41:16;18.80;99.90
16114;DHT22;8161;-33.910;151.156;2022-11-03T10:43:57;18.70;99.90
16114;DHT22;8161;-33.910;151.156;2022-11-03T10:46:25;18.70;99.90
16114;DHT22;8161;-33.910;151.156;2022-11-03T10:51:37;18.60;99.90
16114;DHT22;8161;-33.910;151.156;2022-11-03T10:54:07;18.60;99.90
16114;DHT22;8161;-33.910;151.156;2022-11-03T10:56:36;18.60;99.90
16114;DHT22;8161;-33.910;151.156;2022-11-03T10:59:05;18.50;99.90
16114;DHT22;8161;-33.910;151.156;2022-11-03T11:01:32;18.50;99.90
16114;DHT22;8161;-33.910;151.156;2022-11-03T11:04:00;18.50;99.90
16114;DHT22;8161;-33.910;151.156;2022-11-03T11:06:29;18.50;99.90
16114;DHT22;8161;-33.910;151.156;2022-11-03T11:09:04;18.40;99.90
16114;DHT22;8161;-33.910;151.156;2022-11-03T11:11:33;18.40;99.90
16114;DHT22;8161;-33.910;151.156;2022-11-03T11:17:00;18.40;99.90
16114;DHT22;8161;-33.910;151.156;2022-11-03T11:19:32;18.30;99.90
16114;DHT22;8161;-33.910;151.156;2022-11-03T11:22:21;18.30;99.90
16114;DHT22;8161;-33.910;151.156;2022-11-03T11:35:11;18.20;99.90
16114;DHT22;8161;-33.910;151.156;2022-11-03T11:37:42;18.20;99.90
16114;DHT22;8161;-33.910;151.156;2022-11-03T11:40:48;18.20;99.90
16114;DHT22;8161;-33.910;151.156;2022-11-03T11:48:34;18.30;99.90
16114;DHT22;8161;-33.910;151.156;2022-11-03T11:51:02;18.30;99.90
16114;DHT22;8161;-33.910;151.156;2022-11-03T11:53:40;18.20;99.90
16114;DHT22;8161;-33.910;151.156;2022-11-03T11:56:11;18.20;99.90
16114;DHT22;8161;-33.910;151.156;2022-11-03T11:58:52;18.20;99.90
16114;DHT22;8161;-33.910;151.156;2022-11-03T12:01:31;18.20;99.90
16114;DHT22;8161;-33.910;151.156;2022-11-03T12:06:57;18.20;99.90
16114;DHT22;8161;-33.910;151.156;2022-11-03T12:09:26;18.20;99.90
16114;DHT22;8161;-33.910;151.156;2022-11-03T12:11:59;18.20;99.90
16114;DHT22;8161;-33.910;151.156;2022-11-03T12:16:56;18.20;99.90
16114;DHT22;8161;-33.910;151.156;2022-11-03T12:22:07;18.10;99.90
16114;DHT22;8161;-33.910;151.156;2022-11-03T12:24:55;18.00;99.90
16114;DHT22;8161;-33.910;151.156;2022-11-03T12:29:57;18.00;99.90
16114;DHT22;8161;-33.910;151.156;2022-11-03T12:32:25;17.90;99.90
16114;DHT22;8161;-33.910;151.156;2022-11-03T12:34:52;17.90;99.90
16114;DHT22;8161;-33.910;151.156;2022-11-03T12:37:22;17.80;99.90
16114;DHT22;8161;-33.910;151.156;2022-11-03T12:39:49;17.80;99.90
16114;DHT22;8161;-33.910;151.156;2022-11-03T12:42:16;17.70;99.90
16114;DHT22;8161;-33.910;151.156;2022-11-03T12:44:45;17.70;99.90
16114;DHT22;8161;-33.910;151.156;2022-11-03T12:47:13;17.70;99.90
16114;DHT22;8161;-33.910;151.156;2022-11-03T12:49:40;17.70;99.90
16114;DHT22;8161;-33.910;151.156;2022-11-03T12:52:07;17.80;99.90
16114;DHT22;8161;-33.910;151.156;2022-11-03T12:54:36;17.60;99.90
16114;DHT22;8161;-33.910;151.156;2022-11-03T12:57:03;17.80;99.90
16114;DHT22;8161;-33.910;151.156;2022-11-03T12:59:30;17.50;99.90
16114;DHT22;8161;-33.910;151.156;2022-11-03T13:01:57;17.70;99.90
16114;DHT22;8161;-33.910;151.156;2022-11-03T13:04:25;17.60;99.90
16114;DHT22;8161;-33.910;151.156;2022-11-03T13:06:52;17.70;99.90
16114;DHT22;8161;-33.910;151.156;2022-11-03T13:09:19;17.80;99.90
16114;DHT22;8161;-33.910;151.156;2022-11-03T13:11:47;17.50;99.90
16114;DHT22;8161;-33.910;151.156;2022-11-03T13:14:28;17.50;99.90
16114;DHT22;8161;-33.910;151.156;2022-11-03T13:16:55;17.90;99.90
16114;DHT22;8161;-33.910;151.156;2022-11-03T13:19:22;17.80;99.90
16114;DHT22;8161;-33.910;151.156;2022-11-03T13:21:50;17.90;99.90
16114;DHT22;8161;-33.910;151.156;2022-11-03T13:24:17;18.00;99.90
16114;DHT22;8161;-33.910;151.156;2022-11-03T13:26:44;17.60;99.90
16114;DHT22;8161;-33.910;151.156;2022-11-03T13:29:12;18.00;99.90
16114;DHT22;8161;-33.910;151.156;2022-11-03T13:31:39;17.60;99.90
16114;DHT22;8161;-33.910;151.156;2022-11-03T13:34:06;17.90;99.90
16114;DHT22;8161;-33.910;151.156;2022-11-03T13:36:34;17.80;99.90
16114;DHT22;8161;-33.910;151.156;2022-11-03T13:39:01;17.60;99.90
16114;DHT22;8161;-33.910;151.156;2022-11-03T13:41:29;17.50;99.90
16114;DHT22;8161;-33.910;151.156;2022-11-03T13:43:56;17.50;99.90
16114;DHT22;8161;-33.910;151.156;2022-11-03T13:46:23;17.80;99.90
16114;DHT22;8161;-33.910;151.156;2022-11-03T13:48:51;18.00;99.90
16114;DHT22;8161;-33.910;151.156;2022-11-03T13:51:18;17.90;99.90
16114;DHT22;8161;-33.910;151.156;2022-11-03T13:53:46;17.80;99.90
16114;DHT22;8161;-33.910;151.156;2022-11-03T13:56:14;17.80;99.90
16114;DHT22;8161;-33.910;151.156;2022-11-03T13:58:41;17.80;99.90
16114;DHT22;8161;-33.910;151.156;2022-11-03T14:01:08;17.70;99.90
16114;DHT22;8161;-33.910;151.156;2022-11-03T14:03:35;17.60;99.90
16114;DHT22;8161;-33.910;151.156;2022-11-03T14:06:03;17.70;99.90
16114;DHT22;8161;-33.910;151.156;2022-11-03T14:08:30;17.60;99.90
16114;DHT22;8161;-33.910;151.156;2022-11-03T14:10:57;17.50;99.90
16114;DHT22;8161;-33.910;151.156;2022-11-03T14:13:45;17.60;99.90
16114;DHT22;8161;-33.910;151.156;2022-11-03T14:16:12;17.60;99.90
16114;DHT22;8161;-33.910;151.156;2022-11-03T14:18:40;17.60;99.90
16114;DHT22;8161;-33.910;151.156;2022-11-03T14:21:07;17.50;99.90
16114;DHT22;8161;-33.910;151.156;2022-11-03T14:23:34;17.50;99.90
16114;DHT22;8161;-33.910;151.156;2022-11-03T14:26:02;17.70;99.90
16114;DHT22;8161;-33.910;151.156;2022-11-03T14:28:29;17.80;99.90
16114;DHT22;8161;-33.910;151.156;2022-11-03T14:30:57;17.50;99.90
16114;DHT22;8161;-33.910;151.156;2022-11-03T14:33:25;17.60;99.90
16114;DHT22;8161;-33.910;151.156;2022-11-03T14:35:52;17.70;99.90
16114;DHT22;8161;-33.910;151.156;2022-11-03T14:38:20;17.80;99.90
16114;DHT22;8161;-33.910;151.156;2022-11-03T14:40:47;17.20;99.90
16114;DHT22;8161;-33.910;151.156;2022-11-03T14:43:28;17.80;99.90
16114;DHT22;8161;-33.910;151.156;2022-11-03T14:45:55;17.40;99.90
16114;DHT22;8161;-33.910;151.156;2022-11-03T14:48:22;17.60;99.90
16114;DHT22;8161;-33.910;151.156;2022-11-03T14:50:49;17.70;99.90
16114;DHT22;8161;-33.910;151.156;2022-11-03T14:53:17;17.60;99.90
16114;DHT22;8161;-33.910;151.156;2022-11-03T14:55:44;17.50;99.90
16114;DHT22;8161;-33.910;151.156;2022-11-03T14:58:12;17.70;99.90
16114;DHT22;8161;-33.910;151.156;2022-11-03T15:00:39;17.50;99.90
16114;DHT22;8161;-33.910;151.156;2022-11-03T15:03:06;17.50;99.90
16114;DHT22;8161;-33.910;151.156;2022-11-03T15:05:33;17.40;99.90
16114;DHT22;8161;-33.910;151.156;2022-11-03T15:08:12;17.50;99.90
16114;DHT22;8161;-33.910;151.156;2022-11-03T15:10:39;17.70;99.90
16114;DHT22;8161;-33.910;151.156;2022-11-03T15:13:08;17.60;99.90
16114;DHT22;8161;-33.910;151.156;2022-11-03T15:15:36;18.10;99.90
16114;DHT22;8161;-33.910;151.156;2022-11-03T15:18:06;17.50;99.90
16114;DHT22;8161;-33.910;151.156;2022-11-03T15:20:34;17.60;99.90
16114;DHT22;8161;-33.910;151.156;2022-11-03T15:23:02;17.50;99.90
16114;DHT22;8161;-33.910;151.156;2022-11-03T15:25:30;17.50;99.90
16114;DHT22;8161;-33.910;151.156;2022-11-03T15:27:58;17.30;99.90
16114;DHT22;8161;-33.910;151.156;2022-11-03T15:30:26;17.60;99.90
16114;DHT22;8161;-33.910;151.156;2022-11-03T15:32:53;17.30;99.90
16114;DHT22;8161;-33.910;151.156;2022-11-03T15:35:22;17.30;99.90
16114;DHT22;8161;-33.910;151.156;2022-11-03T15:37:49;17.40;99.90
16114;DHT22;8161;-33.910;151.156;2022-11-03T15:40:17;17.30;99.90
16114;DHT22;8161;-33.910;151.156;2022-11-03T15:42:44;17.40;99.90
16114;DHT22;8161;-33.910;151.156;2022-11-03T15:45:13;17.20;99.90
16114;DHT22;8161;-33.910;151.156;2022-11-03T15:47:40;17.20;99.90
16114;DHT22;8161;-33.910;151.156;2022-11-03T15:50:09;17.20;99.90
16114;DHT22;8161;-33.910;151.156;2022-11-03T15:52:37;17.20;99.90
16114;DHT22;8161;-33.910;151.156;2022-11-03T15:55:06;17.10;99.90
16114;DHT22;8161;-33.910;151.156;2022-11-03T15:57:34;17.30;99.90
16114;DHT22;8161;-33.910;151.156;2022-11-03T16:00:02;16.90;99.90
16114;DHT22;8161;-33.910;151.156;2022-11-03T16:02:31;17.00;99.90
16114;DHT22;8161;-33.910;151.156;2022-11-03T16:05:02;17.10;99.90
16114;DHT22;8161;-33.910;151.156;2022-11-03T16:07:29;17.20;99.90
16114;DHT22;8161;-33.910;151.156;2022-11-03T16:09:58;16.90;99.90
16114;DHT22;8161;-33.910;151.156;2022-11-03T16:12:25;17.20;99.90
16114;DHT22;8161;-33.910;151.156;2022-11-03T16:14:53;17.00;99.90
16114;DHT22;8161;-33.910;151.156;2022-11-03T16:17:20;17.00;99.90
16114;DHT22;8161;-33.910;151.156;2022-11-03T16:19:48;16.90;99.90
16114;DHT22;8161;-33.910;151.156;2022-11-03T16:22:17;16.90;99.90
16114;DHT22;8161;-33.910;151.156;2022-11-03T16:24:44;16.90;99.90
16114;DHT22;8161;-33.910;151.156;2022-11-03T16:27:13;16.80;99.90
16114;DHT22;8161;-33.910;151.156;2022-11-03T16:29:41;16.60;99.90
16114;DHT22;8161;-33.910;151.156;2022-11-03T16:32:08;16.80;99.90
16114;DHT22;8161;-33.910;151.156;2022-11-03T16:34:35;17.00;99.90
16114;DHT22;8161;-33.910;151.156;2022-11-03T16:37:03;16.70;99.90
16114;DHT22;8161;-33.910;151.156;2022-11-03T16:39:31;16.50;99.90